sensor_id;sensor_type;location;lat;lon;timestamp;pressure;altitude;pressure_sealevel;temperature;humidity
32642;BME280;19323;56.072;9.698;2022-08-01T00:01:55;100517.97;;;28.22;43.51
32642;BME280;19323;56.072;9.698;2022-08-01T00:04:22;100512.13;;;28.19;43.13
32642;BME280;19323;56.072;9.698;2022-08-01T00:06:49;100523.84;;;28.26;43.04
32642;BME280;19323;56.072;9.698;2022-08-01T00:09:15;100521.13;;;28.26;43.23
32642;BME280;19323;56.072;9.698;2022-08-01T00:11:49;100507.75;;;28.18;43.37
32642;BME280;19323;56.072;9.698;2022-08-01T00:14:25;100521.13;;;28.26;43.51
32642;BME280;19323;56.072;9.698;2022-08-01T00:16:58;100528.19;;;28.27;43.19
32642;BME280;19323;56.072;9.698;2022-08-01T00:19:32;100497.91;;;28.10;43.27
32642;BME280;19323;56.072;9.698;2022-08-01T00:21:58;100518.44;;;28.26;42.99
32642;BME280;19323;56.072;9.698;2022-08-01T00:24:25;100515.75;;;28.26;43.42
32642;BME280;19323;56.072;9.698;2022-08-01T00:26:51;100523.84;;;28.26;43.19
32642;BME280;19323;56.072;9.698;2022-08-01T00:29:18;100522.78;;;28.27;43.46
32642;BME280;19323;56.072;9.698;2022-08-01T00:32:05;100456.19;;;27.83;43.14
32642;BME280;19323;56.072;9.698;2022-08-01T00:34:32;100522.78;;;28.27;42.96
32642;BME280;19323;56.072;9.698;2022-08-01T00:36:58;100528.19;;;28.27;43.49
32642;BME280;19323;56.072;9.698;2022-08-01T00:39:25;100529.88;;;28.28;42.99
32642;BME280;19323;56.072;9.698;2022-08-01T00:41:51;100524.66;;;28.26;43.41
32642;BME280;19323;56.072;9.698;2022-08-01T00:44:26;100520.09;;;28.27;43.07
32642;BME280;19323;56.072;9.698;2022-08-01T00:46:52;100519.09;;;28.28;43.39
32642;BME280;19323;56.072;9.698;2022-08-01T00:49:19;100518.28;;;28.27;43.11
32642;BME280;19323;56.072;9.698;2022-08-01T00:51:46;100518.28;;;28.27;43.17
32642;BME280;19323;56.072;9.698;2022-08-01T00:54:12;100487.97;;;28.10;43.07
32642;BME280;19323;56.072;9.698;2022-08-01T00:56:42;100520.75;;;28.29;43.26
32642;BME280;19323;56.072;9.698;2022-08-01T00:59:11;100525.31;;;28.28;43.20
32642;BME280;19323;56.072;9.698;2022-08-01T01:01:39;100512.78;;;28.21;42.99
32642;BME280;19323;56.072;9.698;2022-08-01T01:04:11;100519.09;;;28.28;43.30
32642;BME280;19323;56.072;9.698;2022-08-01T01:06:46;100508.41;;;28.20;43.05
32642;BME280;19323;56.072;9.698;2022-08-01T01:09:28;100446.13;;;27.85;43.38
32642;BME280;19323;56.072;9.698;2022-08-01T01:14:48;100511.56;;;28.23;43.51
32642;BME280;19323;56.072;9.698;2022-08-01T01:17:21;100510.09;;;28.21;43.33
32642;BME280;19323;56.072;9.698;2022-08-01T01:20:12;100520.75;;;28.29;43.57
32642;BME280;19323;56.072;9.698;2022-08-01T01:28:58;100518.06;;;28.29;43.23
32642;BME280;19323;56.072;9.698;2022-08-01T01:31:27;100526.97;;;28.29;43.76
32642;BME280;19323;56.072;9.698;2022-08-01T01:33:56;100496.31;;;28.15;43.61
32642;BME280;19323;56.072;9.698;2022-08-01T01:36:25;100517.25;;;28.28;43.18
32642;BME280;19323;56.072;9.698;2022-08-01T01:38:53;100509.22;;;28.20;43.38
32642;BME280;19323;56.072;9.698;2022-08-01T01:41:20;100528.84;;;28.29;43.22
32642;BME280;19323;56.072;9.698;2022-08-01T01:43:49;100526.97;;;28.29;43.14
32642;BME280;19323;56.072;9.698;2022-08-01T01:46:19;100494.81;;;28.13;43.49
32642;BME280;19323;56.072;9.698;2022-08-01T01:48:50;100531.53;;;28.29;43.23
32642;BME280;19323;56.072;9.698;2022-08-01T01:51:18;100505.88;;;28.18;43.45
32642;BME280;19323;56.072;9.698;2022-08-01T01:53:47;100505.06;;;28.18;43.45
32642;BME280;19323;56.072;9.698;2022-08-01T01:56:16;100528.00;;;28.28;43.32
32642;BME280;19323;56.072;9.698;2022-08-01T01:58:44;100525.31;;;28.28;43.38
32642;BME280;19323;56.072;9.698;2022-08-01T02:01:12;100523.47;;;28.29;43.22
32642;BME280;19323;56.072;9.698;2022-08-01T02:03:42;100517.25;;;28.28;43.45
32642;BME280;19323;56.072;9.698;2022-08-01T02:06:11;100516.59;;;28.26;43.22
32642;BME280;19323;56.072;9.698;2022-08-01T02:08:40;100524.28;;;28.29;43.41
32642;BME280;19323;56.072;9.698;2022-08-01T02:11:09;100518.91;;;28.29;43.08
32642;BME280;19323;56.072;9.698;2022-08-01T02:13:54;100491.59;;;28.18;43.02
32642;BME280;19323;56.072;9.698;2022-08-01T02:16:24;100516.19;;;28.29;43.37
32642;BME280;19323;56.072;9.698;2022-08-01T02:18:52;100517.25;;;28.28;43.30
32642;BME280;19323;56.072;9.698;2022-08-01T02:24:31;100520.75;;;28.29;43.21
32642;BME280;19323;56.072;9.698;2022-08-01T02:27:04;100512.78;;;28.21;42.97
32642;BME280;19323;56.072;9.698;2022-08-01T02:29:38;100520.75;;;28.29;42.99
32642;BME280;19323;56.072;9.698;2022-08-01T02:32:07;100521.97;;;28.26;43.19
32642;BME280;19323;56.072;9.698;2022-08-01T02:34:37;100404.34;;;27.51;42.98
32642;BME280;19323;56.072;9.698;2022-08-01T02:37:04;100509.06;;;28.22;42.73
32642;BME280;19323;56.072;9.698;2022-08-01T02:39:36;100520.97;;;28.27;42.85
32642;BME280;19323;56.072;9.698;2022-08-01T02:42:06;100455.09;;;27.77;42.85
32642;BME280;19323;56.072;9.698;2022-08-01T02:44:37;100475.00;;;27.91;42.92
32642;BME280;19323;56.072;9.698;2022-08-01T02:47:06;100537.75;;;28.29;42.76
32642;BME280;19323;56.072;9.698;2022-08-01T02:49:39;100527.91;;;28.22;42.90
32642;BME280;19323;56.072;9.698;2022-08-01T02:52:12;100544.16;;;28.28;42.61
32642;BME280;19323;56.072;9.698;2022-08-01T02:54:40;100530.50;;;28.15;42.63
32642;BME280;19323;56.072;9.698;2022-08-01T02:57:08;100552.41;;;28.27;42.76
32642;BME280;19323;56.072;9.698;2022-08-01T02:59:40;100557.81;;;28.27;42.66
32642;BME280;19323;56.072;9.698;2022-08-01T03:02:11;100546.09;;;28.20;42.66
32642;BME280;19323;56.072;9.698;2022-08-01T03:04:39;100553.47;;;28.26;42.88
32642;BME280;19323;56.072;9.698;2022-08-01T03:07:09;100489.84;;;27.87;42.72
32642;BME280;19323;56.072;9.698;2022-08-01T03:09:39;100527.69;;;28.08;42.28
32642;BME280;19323;56.072;9.698;2022-08-01T03:12:11;100562.53;;;28.25;42.69
32642;BME280;19323;56.072;9.698;2022-08-01T03:14:39;100559.00;;;28.24;42.41
32642;BME280;19323;56.072;9.698;2022-08-01T03:17:08;100557.16;;;28.25;42.47
32642;BME280;19323;56.072;9.698;2022-08-01T03:19:36;100556.38;;;28.16;42.40
32642;BME280;19323;56.072;9.698;2022-08-01T03:22:09;100558.72;;;28.19;42.22
32642;BME280;19323;56.072;9.698;2022-08-01T03:24:39;100560.88;;;28.24;42.47
32642;BME280;19323;56.072;9.698;2022-08-01T03:27:08;100551.53;;;28.11;42.23
32642;BME280;19323;56.072;9.698;2022-08-01T03:29:37;100565.31;;;28.17;42.10
32642;BME280;19323;56.072;9.698;2022-08-01T03:32:06;100570.34;;;28.20;42.05
32642;BME280;19323;56.072;9.698;2022-08-01T03:34:33;100561.97;;;28.14;41.59
32642;BME280;19323;56.072;9.698;2022-08-01T03:37:15;100577.22;;;28.22;41.86
32642;BME280;19323;56.072;9.698;2022-08-01T03:39:55;100579.06;;;28.22;41.95
32642;BME280;19323;56.072;9.698;2022-08-01T03:42:26;100587.16;;;28.22;41.74
32642;BME280;19323;56.072;9.698;2022-08-01T03:44:58;100587.97;;;28.22;41.34
32642;BME280;19323;56.072;9.698;2022-08-01T03:47:33;100583.81;;;28.20;41.66
32642;BME280;19323;56.072;9.698;2022-08-01T03:50:10;100591.50;;;28.23;41.33
32642;BME280;19323;56.072;9.698;2022-08-01T03:52:39;100584.47;;;28.22;41.24
32642;BME280;19323;56.072;9.698;2022-08-01T03:55:08;100465.06;;;27.45;41.09
32642;BME280;19323;56.072;9.698;2022-08-01T03:57:38;100588.81;;;28.23;41.22
32642;BME280;19323;56.072;9.698;2022-08-01T04:00:06;100584.47;;;28.22;41.45
32642;BME280;19323;56.072;9.698;2022-08-01T04:02:35;100589.00;;;28.21;41.19
32642;BME280;19323;56.072;9.698;2022-08-01T04:05:03;100580.50;;;28.09;40.85
32642;BME280;19323;56.072;9.698;2022-08-01T04:07:33;100607.88;;;28.21;40.92
32642;BME280;19323;56.072;9.698;2022-08-01T04:10:03;100605.16;;;28.21;40.90
32642;BME280;19323;56.072;9.698;2022-08-01T04:12:30;100610.56;;;28.21;40.94
32642;BME280;19323;56.072;9.698;2022-08-01T04:14:56;100594.16;;;28.08;40.87
32642;BME280;19323;56.072;9.698;2022-08-01T04:17:23;100592.47;;;28.07;40.56
32642;BME280;19323;56.072;9.698;2022-08-01T04:19:49;100609.06;;;28.19;40.42
32642;BME280;19323;56.072;9.698;2022-08-01T04:22:16;100622.16;;;28.22;40.90
32642;BME280;19323;56.072;9.698;2022-08-01T04:24:47;100624.84;;;28.22;40.62
32642;BME280;19323;56.072;9.698;2022-08-01T04:27:26;100627.53;;;28.22;40.44
32642;BME280;19323;56.072;9.698;2022-08-01T04:30:16;100605.09;;;28.06;40.33
32642;BME280;19323;56.072;9.698;2022-08-01T04:32:46;100605.28;;;28.05;40.65
32642;BME280;19323;56.072;9.698;2022-08-01T04:35:15;100625.88;;;28.21;40.59
32642;BME280;19323;56.072;9.698;2022-08-01T04:38:04;100630.41;;;28.20;40.48
32642;BME280;19323;56.072;9.698;2022-08-01T04:40:32;100630.41;;;28.20;40.41
32642;BME280;19323;56.072;9.698;2022-08-01T04:43:00;100627.06;;;28.18;40.62
32642;BME280;19323;56.072;9.698;2022-08-01T04:45:27;100636.81;;;28.19;40.99
32642;BME280;19323;56.072;9.698;2022-08-01T04:47:54;100634.97;;;28.20;40.45
32642;BME280;19323;56.072;9.698;2022-08-01T04:50:20;100637.81;;;28.18;40.54
32642;BME280;19323;56.072;9.698;2022-08-01T04:52:48;100644.06;;;28.19;40.64
32642;BME280;19323;56.072;9.698;2022-08-01T04:55:14;100617.75;;;28.06;40.64
32642;BME280;19323;56.072;9.698;2022-08-01T04:57:45;100641.38;;;28.19;40.64
32642;BME280;19323;56.072;9.698;2022-08-01T05:00:13;100621.25;;;28.06;40.76
32642;BME280;19323;56.072;9.698;2022-08-01T05:02:40;100644.91;;;28.19;40.36
32642;BME280;19323;56.072;9.698;2022-08-01T05:05:06;100636.16;;;28.17;40.56
32642;BME280;19323;56.072;9.698;2022-08-01T05:07:33;100655.69;;;28.19;40.21
32642;BME280;19323;56.072;9.698;2022-08-01T05:10:11;100645.72;;;28.20;40.30
32642;BME280;19323;56.072;9.698;2022-08-01T05:12:40;100643.03;;;28.20;40.37
32642;BME280;19323;56.072;9.698;2022-08-01T05:15:07;100646.78;;;28.19;40.58
32642;BME280;19323;56.072;9.698;2022-08-01T05:17:40;100637.53;;;28.13;40.32
32642;BME280;19323;56.072;9.698;2022-08-01T05:20:09;100631.31;;;28.12;40.44
32642;BME280;19323;56.072;9.698;2022-08-01T05:22:36;100652.31;;;28.17;40.18
32642;BME280;19323;56.072;9.698;2022-08-01T05:25:03;100645.91;;;28.18;40.62
32642;BME280;19323;56.072;9.698;2022-08-01T05:27:31;100657.53;;;28.19;40.56
32642;BME280;19323;56.072;9.698;2022-08-01T05:29:59;100657.53;;;28.19;40.63
32642;BME280;19323;56.072;9.698;2022-08-01T05:32:25;100660.22;;;28.19;40.32
32642;BME280;19323;56.072;9.698;2022-08-01T05:34:52;100656.69;;;28.18;40.47
32642;BME280;19323;56.072;9.698;2022-08-01T05:37:18;100646.16;;;28.08;40.23
32642;BME280;19323;56.072;9.698;2022-08-01T05:39:45;100652.88;;;28.12;40.26
32642;BME280;19323;56.072;9.698;2022-08-01T05:42:11;100651.00;;;28.13;40.34
32642;BME280;19323;56.072;9.698;2022-08-01T05:44:38;100648.84;;;28.08;40.43
32642;BME280;19323;56.072;9.698;2022-08-01T05:47:04;100656.00;;;28.16;40.31
32642;BME280;19323;56.072;9.698;2022-08-01T05:49:31;100645.13;;;28.09;40.14
32642;BME280;19323;56.072;9.698;2022-08-01T05:51:57;100660.75;;;28.14;40.30
32642;BME280;19323;56.072;9.698;2022-08-01T05:54:24;100640.47;;;28.03;39.91
32642;BME280;19323;56.072;9.698;2022-08-01T05:56:51;100666.63;;;28.18;40.21
32642;BME280;19323;56.072;9.698;2022-08-01T05:59:17;100648.84;;;28.08;40.19
32642;BME280;19323;56.072;9.698;2022-08-01T06:01:44;100663.09;;;28.17;40.18
32642;BME280;19323;56.072;9.698;2022-08-01T06:04:11;100667.66;;;28.17;40.23
32642;BME280;19323;56.072;9.698;2022-08-01T06:06:37;100662.59;;;28.13;40.18
32642;BME280;19323;56.072;9.698;2022-08-01T06:09:04;100672.16;;;28.16;40.02
32642;BME280;19323;56.072;9.698;2022-08-01T06:11:30;100665.94;;;28.15;39.66
32642;BME280;19323;56.072;9.698;2022-08-01T06:13:56;100665.94;;;28.15;39.45
32642;BME280;19323;56.072;9.698;2022-08-01T06:16:23;100664.09;;;28.16;39.18
32642;BME280;19323;56.072;9.698;2022-08-01T06:18:50;100663.25;;;28.15;39.17
32642;BME280;19323;56.072;9.698;2022-08-01T06:21:21;100664.09;;;28.16;38.88
32642;BME280;19323;56.072;9.698;2022-08-01T06:23:48;100664.28;;;28.14;39.06
32642;BME280;19323;56.072;9.698;2022-08-01T06:26:17;100667.66;;;28.17;38.72
32642;BME280;19323;56.072;9.698;2022-08-01T06:28:44;100666.63;;;28.18;38.42
32642;BME280;19323;56.072;9.698;2022-08-01T06:31:11;100647.66;;;28.11;36.37
32642;BME280;19323;56.072;9.698;2022-08-01T06:33:39;100668.22;;;28.27;35.60
32642;BME280;19323;56.072;9.698;2022-08-01T06:36:06;100674.94;;;28.31;35.20
32642;BME280;19323;56.072;9.698;2022-08-01T06:38:32;100667.69;;;28.31;35.09
32642;BME280;19323;56.072;9.698;2022-08-01T06:40:59;100668.56;;;28.32;34.42
32642;BME280;19323;56.072;9.698;2022-08-01T06:43:26;100673.75;;;28.33;34.63
32642;BME280;19323;56.072;9.698;2022-08-01T06:45:52;100677.16;;;28.27;34.43
32642;BME280;19323;56.072;9.698;2022-08-01T06:48:19;100680.09;;;28.18;34.71
32642;BME280;19323;56.072;9.698;2022-08-01T06:50:45;100674.75;;;28.09;34.80
32642;BME280;19323;56.072;9.698;2022-08-01T06:53:12;100686.03;;;28.05;35.32
32642;BME280;19323;56.072;9.698;2022-08-01T06:55:38;100683.88;;;28.00;35.79
32642;BME280;19323;56.072;9.698;2022-08-01T06:58:05;100664.78;;;27.87;35.91
32642;BME280;19323;56.072;9.698;2022-08-01T07:00:31;100676.03;;;27.90;35.89
32642;BME280;19323;56.072;9.698;2022-08-01T07:02:58;100675.03;;;27.83;36.09
32642;BME280;19323;56.072;9.698;2022-08-01T07:05:25;100699.06;;;27.93;35.96
32642;BME280;19323;56.072;9.698;2022-08-01T07:07:52;100701.78;;;27.93;36.39
32642;BME280;19323;56.072;9.698;2022-08-01T07:10:19;100676.41;;;27.79;36.42
32642;BME280;19323;56.072;9.698;2022-08-01T07:12:46;100684.50;;;27.79;36.38
32642;BME280;19323;56.072;9.698;2022-08-01T07:15:12;100694.03;;;27.90;36.18
32642;BME280;19323;56.072;9.698;2022-08-01T07:17:40;100706.84;;;27.88;36.53
32642;BME280;19323;56.072;9.698;2022-08-01T07:20:12;100703.78;;;27.91;36.43
32642;BME280;19323;56.072;9.698;2022-08-01T07:22:41;100697.59;;;27.90;36.82
32642;BME280;19323;56.072;9.698;2022-08-01T07:25:08;100636.50;;;27.51;36.32
32642;BME280;19323;56.072;9.698;2022-08-01T07:27:36;100704.63;;;27.91;36.48
32642;BME280;19323;56.072;9.698;2022-08-01T07:30:03;100711.03;;;27.90;36.46
32642;BME280;19323;56.072;9.698;2022-08-01T07:32:30;100703.78;;;27.91;36.75
32642;BME280;19323;56.072;9.698;2022-08-01T07:34:57;100710.00;;;27.91;37.32
32642;BME280;19323;56.072;9.698;2022-08-01T07:37:25;100711.03;;;27.90;37.36
32642;BME280;19323;56.072;9.698;2022-08-01T07:40:12;100712.69;;;27.91;37.99
32642;BME280;19323;56.072;9.698;2022-08-01T07:42:39;100707.31;;;27.91;37.79
32642;BME280;19323;56.072;9.698;2022-08-01T07:45:10;100699.44;;;27.82;38.01
32642;BME280;19323;56.072;9.698;2022-08-01T07:47:37;100706.31;;;27.84;38.07
32642;BME280;19323;56.072;9.698;2022-08-01T07:50:05;100707.16;;;27.93;38.35
32642;BME280;19323;56.072;9.698;2022-08-01T07:52:32;100708.16;;;27.92;38.26
32642;BME280;19323;56.072;9.698;2022-08-01T07:54:59;100715.22;;;27.93;37.99
32642;BME280;19323;56.072;9.698;2022-08-01T07:57:25;100693.03;;;27.83;37.95
32642;BME280;19323;56.072;9.698;2022-08-01T07:59:52;100687.81;;;27.81;38.28
32642;BME280;19323;56.072;9.698;2022-08-01T08:02:18;100706.66;;;27.89;38.06
32642;BME280;19323;56.072;9.698;2022-08-01T08:04:45;100712.38;;;27.94;38.16
32642;BME280;19323;56.072;9.698;2022-08-01T08:07:14;100723.97;;;27.95;38.06
32642;BME280;19323;56.072;9.698;2022-08-01T08:09:41;100724.81;;;27.96;38.14
32642;BME280;19323;56.072;9.698;2022-08-01T08:12:07;100723.78;;;27.97;37.97
32642;BME280;19323;56.072;9.698;2022-08-01T08:14:35;100708.69;;;27.87;37.79
32642;BME280;19323;56.072;9.698;2022-08-01T08:17:02;100715.75;;;27.88;37.36
32642;BME280;19323;56.072;9.698;2022-08-01T08:19:28;100712.88;;;27.90;37.37
32642;BME280;19323;56.072;9.698;2022-08-01T08:22:04;100710.84;;;27.92;37.24
32642;BME280;19323;56.072;9.698;2022-08-01T08:24:31;100699.25;;;27.83;36.93
32642;BME280;19323;56.072;9.698;2022-08-01T08:26:59;100704.16;;;27.88;36.37
32642;BME280;19323;56.072;9.698;2022-08-01T08:29:27;100721.41;;;28.02;36.34
32642;BME280;19323;56.072;9.698;2022-08-01T08:31:56;100716.84;;;28.02;36.07
32642;BME280;19323;56.072;9.698;2022-08-01T08:34:24;100716.84;;;28.02;36.40
32642;BME280;19323;56.072;9.698;2022-08-01T08:36:52;100724.94;;;28.02;36.01
32642;BME280;19323;56.072;9.698;2022-08-01T08:39:18;100727.47;;;28.04;35.34
32642;BME280;19323;56.072;9.698;2022-08-01T08:41:46;100740.38;;;28.08;35.26
32642;BME280;19323;56.072;9.698;2022-08-01T08:44:16;100732.47;;;28.07;34.90
32642;BME280;19323;56.072;9.698;2022-08-01T08:46:45;100739.06;;;28.04;34.84
32642;BME280;19323;56.072;9.698;2022-08-01T08:49:15;100738.22;;;28.04;35.12
32642;BME280;19323;56.072;9.698;2022-08-01T08:51:43;100743.63;;;28.04;35.24
32642;BME280;19323;56.072;9.698;2022-08-01T08:54:11;100744.44;;;28.04;35.75
32642;BME280;19323;56.072;9.698;2022-08-01T08:56:40;100733.69;;;28.04;34.19
32642;BME280;19323;56.072;9.698;2022-08-01T08:59:08;100752.53;;;28.04;34.56
32642;BME280;19323;56.072;9.698;2022-08-01T09:01:34;100749.81;;;28.04;34.07
32642;BME280;19323;56.072;9.698;2022-08-01T09:04:04;100754.84;;;28.07;34.13
32642;BME280;19323;56.072;9.698;2022-08-01T09:06:32;100761.09;;;28.08;33.38
32642;BME280;19323;56.072;9.698;2022-08-01T09:08:59;100763.59;;;28.09;33.63
32642;BME280;19323;56.072;9.698;2022-08-01T09:11:26;100757.53;;;28.07;33.60
32642;BME280;19323;56.072;9.698;2022-08-01T09:14:06;100754.38;;;28.04;33.26
32642;BME280;19323;56.072;9.698;2022-08-01T09:16:34;100759.94;;;28.02;33.64
32642;BME280;19323;56.072;9.698;2022-08-01T09:19:12;100763.66;;;28.01;33.49
32642;BME280;19323;56.072;9.698;2022-08-01T09:21:56;100763.81;;;28.00;33.48
32642;BME280;19323;56.072;9.698;2022-08-01T09:24:25;100760.63;;;27.96;33.46
32642;BME280;19323;56.072;9.698;2022-08-01T09:26:57;100764.81;;;27.99;34.00
32642;BME280;19323;56.072;9.698;2022-08-01T09:29:29;100763.66;;;28.01;33.80
32642;BME280;19323;56.072;9.698;2022-08-01T09:32:05;100758.28;;;27.93;34.04
32642;BME280;19323;56.072;9.698;2022-08-01T09:34:33;100775.91;;;28.04;33.35
32642;BME280;19323;56.072;9.698;2022-08-01T09:37:01;100769.72;;;28.03;32.96
32642;BME280;19323;56.072;9.698;2022-08-01T09:39:30;100777.94;;;28.02;33.56
32642;BME280;19323;56.072;9.698;2022-08-01T09:41:59;100773.91;;;28.06;33.61
32642;BME280;19323;56.072;9.698;2022-08-01T09:44:41;100798.28;;;28.04;33.26
32642;BME280;19323;56.072;9.698;2022-08-01T09:47:20;100784.69;;;27.98;32.97
32642;BME280;19323;56.072;9.698;2022-08-01T09:49:57;100792.75;;;27.98;32.84
32642;BME280;19323;56.072;9.698;2022-08-01T09:52:26;100789.41;;;27.96;32.76
32642;BME280;19323;56.072;9.698;2022-08-01T09:57:22;100789.78;;;27.92;32.60
32642;BME280;19323;56.072;9.698;2022-08-01T09:59:51;100791.44;;;27.93;32.90
32642;BME280;19323;56.072;9.698;2022-08-01T10:02:33;100789.78;;;27.92;32.50
32642;BME280;19323;56.072;9.698;2022-08-01T10:05:02;100789.78;;;27.92;32.74
32642;BME280;19323;56.072;9.698;2022-08-01T10:07:35;100787.06;;;27.84;32.49
32642;BME280;19323;56.072;9.698;2022-08-01T10:10:14;100804.88;;;27.93;32.46
32642;BME280;19323;56.072;9.698;2022-08-01T10:12:42;100779.00;;;27.76;32.77
32642;BME280;19323;56.072;9.698;2022-08-01T10:15:16;100803.91;;;27.94;32.63
32642;BME280;19323;56.072;9.698;2022-08-01T10:17:50;100802.03;;;27.95;32.45
32642;BME280;19323;56.072;9.698;2022-08-01T10:20:25;100796.66;;;27.95;32.22
32642;BME280;19323;56.072;9.698;2022-08-01T10:22:59;100778.00;;;27.85;32.24
32642;BME280;19323;56.072;9.698;2022-08-01T10:25:36;100798.69;;;27.93;31.77
32642;BME280;19323;56.072;9.698;2022-08-01T10:28:16;100803.41;;;27.91;30.91
32642;BME280;19323;56.072;9.698;2022-08-01T10:30:49;100797.34;;;27.89;31.88
32642;BME280;19323;56.072;9.698;2022-08-01T10:33:21;100784.38;;;27.76;31.78
32642;BME280;19323;56.072;9.698;2022-08-01T10:36:08;100804.75;;;27.87;31.73
32642;BME280;19323;56.072;9.698;2022-08-01T10:38:35;100802.06;;;27.87;32.27
32642;BME280;19323;56.072;9.698;2022-08-01T10:41:03;100797.50;;;27.87;31.77
32642;BME280;19323;56.072;9.698;2022-08-01T10:43:31;100807.44;;;27.87;32.12
32642;BME280;19323;56.072;9.698;2022-08-01T10:46:01;100803.75;;;27.88;32.08
32642;BME280;19323;56.072;9.698;2022-08-01T10:51:09;100785.56;;;27.82;32.27
32642;BME280;19323;56.072;9.698;2022-08-01T10:53:50;100794.47;;;27.90;32.61
32642;BME280;19323;56.072;9.698;2022-08-01T10:56:20;100788.75;;;27.93;32.67
32642;BME280;19323;56.072;9.698;2022-08-01T10:59:01;100801.84;;;27.97;33.33
32642;BME280;19323;56.072;9.698;2022-08-01T11:01:37;100758.44;;;27.83;33.99
32642;BME280;19323;56.072;9.698;2022-08-01T11:04:12;100797.47;;;28.04;33.16
32642;BME280;19323;56.072;9.698;2022-08-01T11:06:54;100797.47;;;28.04;32.85
32642;BME280;19323;56.072;9.698;2022-08-01T11:09:24;100798.13;;;28.06;33.26
32642;BME280;19323;56.072;9.698;2022-08-01T11:12:08;100793.75;;;28.05;31.38
32642;BME280;19323;56.072;9.698;2022-08-01T11:25:25;100772.09;;;27.82;31.41
32642;BME280;19323;56.072;9.698;2022-08-01T11:39:28;100789.56;;;27.94;33.05
32642;BME280;19323;56.072;9.698;2022-08-01T11:41:40;100802.34;;;28.00;33.10
32642;BME280;19323;56.072;9.698;2022-08-01T11:44:15;100801.28;;;28.09;32.28
32642;BME280;19323;56.072;9.698;2022-08-01T11:49:31;100810.41;;;28.08;32.46
32642;BME280;19323;56.072;9.698;2022-08-01T11:52:07;100823.69;;;28.10;32.60
32642;BME280;19323;56.072;9.698;2022-08-01T11:54:38;100820.81;;;28.11;32.33
32642;BME280;19323;56.072;9.698;2022-08-01T11:57:10;100820.63;;;28.13;32.06
32642;BME280;19323;56.072;9.698;2022-08-01T11:59:46;100815.25;;;28.13;31.60
32642;BME280;19323;56.072;9.698;2022-08-01T12:02:33;100820.81;;;28.11;30.97
32642;BME280;19323;56.072;9.698;2022-08-01T12:05:07;100824.53;;;28.10;31.50
32642;BME280;19323;56.072;9.698;2022-08-01T12:07:38;100821.84;;;28.10;31.38
32642;BME280;19323;56.072;9.698;2022-08-01T12:10:14;100805.41;;;27.97;30.98
32642;BME280;19323;56.072;9.698;2022-08-01T12:13:01;100816.09;;;28.13;31.72
32642;BME280;19323;56.072;9.698;2022-08-01T12:15:34;100803.31;;;28.07;31.50
32642;BME280;19323;56.072;9.698;2022-08-01T12:18:03;100813.91;;;28.17;31.35
32642;BME280;19323;56.072;9.698;2022-08-01T12:20:39;100818.44;;;28.17;31.00
32642;BME280;19323;56.072;9.698;2022-08-01T12:23:21;100822.81;;;28.18;31.55
32642;BME280;19323;56.072;9.698;2022-08-01T12:25:51;100814.72;;;28.18;31.38
32642;BME280;19323;56.072;9.698;2022-08-01T12:28:18;100817.91;;;28.21;31.46
32642;BME280;19323;56.072;9.698;2022-08-01T12:30:47;100658.25;;;27.17;31.03
32642;BME280;19323;56.072;9.698;2022-08-01T12:33:17;100816.75;;;28.15;30.85
32642;BME280;19323;56.072;9.698;2022-08-01T12:35:44;100816.72;;;28.24;31.25
32642;BME280;19323;56.072;9.698;2022-08-01T12:38:19;100816.72;;;28.24;30.90
32642;BME280;19323;56.072;9.698;2022-08-01T12:40:46;100830.19;;;28.24;31.14
32642;BME280;19323;56.072;9.698;2022-08-01T12:43:20;100833.72;;;28.24;30.97
32642;BME280;19323;56.072;9.698;2022-08-01T12:45:56;100831.19;;;28.23;31.33
32642;BME280;19323;56.072;9.698;2022-08-01T12:48:24;100829.34;;;28.23;31.59
32642;BME280;19323;56.072;9.698;2022-08-01T12:50:52;100827.13;;;28.27;31.75
32642;BME280;19323;56.072;9.698;2022-08-01T12:53:20;100821.41;;;28.30;31.06
32642;BME280;19323;56.072;9.698;2022-08-01T12:55:53;100823.06;;;28.31;31.01
32642;BME280;19323;56.072;9.698;2022-08-01T12:58:31;100839.41;;;28.29;31.21
32642;BME280;19323;56.072;9.698;2022-08-01T13:01:06;100836.72;;;28.29;30.87
32642;BME280;19323;56.072;9.698;2022-08-01T13:03:33;100834.88;;;28.30;30.74
32642;BME280;19323;56.072;9.698;2022-08-01T13:06:00;100798.94;;;28.14;30.89
32642;BME280;19323;56.072;9.698;2022-08-01T13:08:32;100837.72;;;28.37;31.21
32642;BME280;19323;56.072;9.698;2022-08-01T13:11:06;100811.84;;;28.27;30.32
32642;BME280;19323;56.072;9.698;2022-08-01T13:16:23;100833.00;;;28.39;30.63
32642;BME280;19323;56.072;9.698;2022-08-01T13:19:13;100821.84;;;28.42;31.05
32642;BME280;19323;56.072;9.698;2022-08-01T13:21:53;100828.72;;;28.44;30.45
32642;BME280;19323;56.072;9.698;2022-08-01T13:24:28;100820.31;;;28.47;30.52
32642;BME280;19323;56.072;9.698;2022-08-01T13:27:02;100832.78;;;28.48;29.76
32642;BME280;19323;56.072;9.698;2022-08-01T13:29:37;100830.59;;;28.52;30.35
32642;BME280;19323;56.072;9.698;2022-08-01T13:32:20;100826.88;;;28.53;29.65
32642;BME280;19323;56.072;9.698;2022-08-01T13:35:07;100824.84;;;28.55;30.07
32642;BME280;19323;56.072;9.698;2022-08-01T13:37:35;100818.31;;;28.41;30.28
32642;BME280;19323;56.072;9.698;2022-08-01T13:40:04;100846.72;;;28.60;30.37
32642;BME280;19323;56.072;9.698;2022-08-01T13:42:31;100810.75;;;28.45;30.05
32642;BME280;19323;56.072;9.698;2022-08-01T13:44:58;100835.41;;;28.65;30.11
32642;BME280;19323;56.072;9.698;2022-08-01T13:47:25;100843.13;;;28.68;29.58
32642;BME280;19323;56.072;9.698;2022-08-01T13:49:57;100847.31;;;28.70;29.58
32642;BME280;19323;56.072;9.698;2022-08-01T13:52:27;100847.16;;;28.72;29.32